Strawberry Valley, California
Current Conditions -  °F | °C
As of 3:20 PM on Wednesday 26 Nov 2014 (Local Time) from KGOO Reporting Station
Clear Clear  
Wind Chill: 64°   Ceiling: Unl
Heat Index: 64°   Visibility: 10mi
Dew Point: 41°   Wind: 0mph
Humidity: 42%   Direction: NA
Pressure: 30.3"   Gusts: NA
Location:  39.56°N, 121.11°W
Report Text: KGOO 262320Z AUTO 00000KT 10SM CLR 18/05 A3030 RMK AO1
Loading
Personal Weather Stations






























Interactive Weather Map New forecast layout! Learn more

10-Day Weather Forecast

Advertisements
Track Severe Weather on mobile